createdAt,value
2019-03-30T08:37:49.319Z,10.70
2019-03-30T08:40:19.748Z,11.00
2019-03-30T08:42:49.818Z,11.10
2019-03-30T08:45:19.882Z,11.20
2019-03-30T08:47:49.978Z,11.30
2019-03-30T08:50:20.082Z,11.40
2019-03-30T08:52:50.569Z,11.50
2019-03-30T08:55:20.662Z,11.80
2019-03-30T08:57:50.763Z,12.00
2019-03-30T09:00:37.198Z,12.20
2019-03-30T09:03:07.691Z,12.30
2019-03-30T09:05:37.780Z,12.40
2019-03-30T09:08:07.922Z,12.50
2019-03-30T09:10:38.007Z,12.70
2019-03-30T09:13:08.094Z,12.70
2019-03-30T09:15:38.157Z,12.90
2019-03-30T09:18:08.259Z,12.90
2019-03-30T09:20:38.431Z,13.10
2019-03-30T09:23:08.572Z,13.20
2019-03-30T09:25:38.627Z,13.20
2019-03-30T09:28:08.691Z,13.40
2019-03-30T09:30:38.782Z,13.40
2019-03-30T09:33:08.855Z,13.50
2019-03-30T09:35:39.386Z,13.60
2019-03-30T09:38:09.530Z,13.70
2019-03-30T09:40:39.589Z,13.80
2019-03-30T09:43:09.663Z,13.90
2019-03-30T09:45:39.748Z,14.00
2019-03-30T09:48:09.796Z,14.10
2019-03-30T09:50:39.958Z,14.30
2019-03-30T09:53:10.191Z,14.40
2019-03-30T09:55:40.611Z,14.40
2019-03-30T09:58:11.163Z,14.40
2019-03-30T10:00:41.662Z,14.40
2019-03-30T10:03:11.710Z,14.60
2019-03-30T10:05:41.798Z,14.90
2019-03-30T10:08:11.894Z,15.00
2019-03-30T10:10:42.294Z,15.20
2019-03-30T10:13:12.354Z,15.20
2019-03-30T10:15:42.412Z,15.40
2019-03-30T10:18:12.466Z,15.60
2019-03-30T10:20:43.107Z,15.70
2019-03-30T10:23:13.167Z,15.80
2019-03-30T10:25:43.270Z,15.80
2019-03-30T10:28:13.343Z,15.80
2019-03-30T10:30:43.466Z,15.70
2019-03-30T10:33:13.518Z,15.70
2019-03-30T10:35:43.583Z,15.60
2019-03-30T10:38:14.026Z,15.60
2019-03-30T10:40:44.080Z,15.80
2019-03-30T10:43:14.166Z,15.80
2019-03-30T10:45:44.218Z,15.80
2019-03-30T10:48:14.307Z,15.80
2019-03-30T10:50:44.362Z,15.80
2019-03-30T10:53:14.487Z,15.90
2019-03-30T10:55:44.532Z,16.00
2019-03-30T10:58:14.601Z,16.00
2019-03-30T11:00:44.646Z,16.20
2019-03-30T11:03:14.732Z,16.10
2019-03-30T11:05:44.794Z,16.20
2019-03-30T11:08:14.874Z,16.30
2019-03-30T11:10:44.918Z,16.40
2019-03-30T11:13:15.143Z,16.50
2019-03-30T11:15:45.195Z,16.40
2019-03-30T11:18:15.254Z,16.60
2019-03-30T11:20:45.347Z,16.70
2019-03-30T11:23:15.386Z,16.70
2019-03-30T11:25:45.463Z,16.80
2019-03-30T11:28:15.517Z,17.00
2019-03-30T11:30:45.586Z,16.80
2019-03-30T11:33:15.642Z,16.90
2019-03-30T11:35:45.725Z,16.90
2019-03-30T11:38:15.777Z,17.00
2019-03-30T11:40:46.234Z,17.00
2019-03-30T11:43:16.703Z,17.00
2019-03-30T11:45:46.746Z,17.00
2019-03-30T11:48:16.851Z,17.10
2019-03-30T11:50:46.952Z,17.20
2019-03-30T11:53:17.449Z,17.30
2019-03-30T11:55:47.548Z,17.40
2019-03-30T11:58:17.626Z,17.50
2019-03-30T12:00:47.707Z,17.50
2019-03-30T12:03:17.862Z,17.60
2019-03-30T12:05:47.991Z,17.70
2019-03-30T12:08:18.511Z,17.80
2019-03-30T12:10:48.607Z,17.80
2019-03-30T12:13:19.098Z,17.70
2019-03-30T12:15:50.379Z,17.70
2019-03-30T12:18:24.454Z,17.90
2019-03-30T12:20:54.860Z,18.00
2019-03-30T12:23:27.010Z,18.00
2019-03-30T12:25:57.228Z,18.00
2019-03-30T12:28:27.280Z,17.90
2019-03-30T12:30:57.350Z,17.90
2019-03-30T12:33:27.443Z,17.90
2019-03-30T12:35:57.545Z,17.80
2019-03-30T12:38:28.171Z,18.00
2019-03-30T12:40:58.264Z,18.00
2019-03-30T12:43:28.355Z,17.70
2019-03-30T12:45:58.447Z,17.60
2019-03-30T12:48:28.762Z,17.60
2019-03-30T12:50:58.858Z,17.70
2019-03-30T12:53:28.991Z,17.80
2019-03-30T12:55:59.134Z,18.00
2019-03-30T12:58:29.354Z,17.90
2019-03-30T13:00:59.426Z,17.90
2019-03-30T13:03:29.521Z,18.00
2019-03-30T13:05:59.815Z,18.50
2019-03-30T13:08:30.268Z,18.70
2019-03-30T13:11:01.092Z,18.70
2019-03-30T13:13:33.014Z,18.80
2019-03-30T13:16:04.193Z,18.90
2019-03-30T13:18:34.410Z,19.10
2019-03-30T13:21:04.474Z,18.80
2019-03-30T13:23:34.544Z,18.50
2019-03-30T13:26:04.623Z,18.40
2019-03-30T13:28:34.769Z,18.40
2019-03-30T13:31:05.370Z,18.40
2019-03-30T13:33:35.864Z,18.20
2019-03-30T13:36:06.496Z,18.20
2019-03-30T13:38:36.539Z,18.20
2019-03-30T13:41:06.850Z,18.10
2019-03-30T13:43:36.920Z,18.00
2019-03-30T13:46:08.594Z,18.10
2019-03-30T13:48:39.101Z,18.20
2019-03-30T13:51:09.701Z,18.40
2019-03-30T13:53:40.005Z,18.60
2019-03-30T13:56:16.995Z,18.60
2019-03-30T13:58:42.955Z,18.60
2019-03-30T14:01:13.014Z,18.40
2019-03-30T14:03:43.522Z,18.50
2019-03-30T14:06:14.614Z,18.70
2019-03-30T14:08:45.187Z,18.70
2019-03-30T14:11:15.202Z,18.70
2019-03-30T14:13:45.320Z,18.80
2019-03-30T14:16:15.755Z,18.80
2019-03-30T14:18:45.883Z,18.70
2019-03-30T14:21:16.750Z,18.70
2019-03-30T14:23:46.938Z,18.70
2019-03-30T14:26:30.419Z,18.80
2019-03-30T14:28:48.874Z,18.80
2019-03-30T14:31:18.968Z,18.80
2019-03-30T14:33:49.011Z,19.00
2019-03-30T14:36:19.110Z,19.20
2019-03-30T14:38:49.334Z,19.30
2019-03-30T14:41:20.410Z,19.40
2019-03-30T14:43:51.215Z,19.40
2019-03-30T14:46:21.356Z,19.50
2019-03-30T14:48:51.836Z,19.40
2019-03-30T14:51:22.319Z,19.30
2019-03-30T14:53:52.835Z,19.10
2019-03-30T14:56:23.047Z,18.90
2019-03-30T14:58:53.634Z,18.80
2019-03-30T15:01:23.713Z,18.60
2019-03-30T15:03:54.094Z,18.60
2019-03-30T15:06:24.223Z,18.70
2019-03-30T15:08:54.619Z,18.70
2019-03-30T15:11:24.898Z,18.80
2019-03-30T15:13:55.326Z,18.90
2019-03-30T15:16:25.366Z,18.90
2019-03-30T15:18:55.875Z,19.00
2019-03-30T15:21:25.954Z,19.00
2019-03-30T15:23:56.014Z,19.00
2019-03-30T15:26:26.174Z,18.80
2019-03-30T15:28:56.234Z,18.80
2019-03-30T15:31:26.319Z,18.70
2019-03-30T15:33:56.758Z,18.70
2019-03-30T15:36:26.960Z,18.50
2019-03-30T15:38:57.020Z,18.40
2019-03-30T15:41:27.586Z,18.30
2019-03-30T15:43:57.844Z,18.20
2019-03-30T15:46:27.915Z,18.20
2019-03-30T15:48:58.487Z,18.40
2019-03-30T15:51:28.538Z,18.50
2019-03-30T15:54:09.856Z,18.40
2019-03-30T15:56:40.611Z,18.40
2019-03-30T15:59:10.703Z,18.20
2019-03-30T16:01:41.678Z,18.00
2019-03-30T16:04:12.888Z,17.80
2019-03-30T16:06:43.755Z,17.60
2019-03-30T16:09:14.159Z,17.70
2019-03-30T16:11:46.262Z,17.60
2019-03-30T16:14:16.460Z,17.60
2019-03-30T16:16:47.306Z,17.70
2019-03-30T16:19:17.379Z,17.60
2019-03-30T16:21:49.672Z,17.50
2019-03-30T16:24:19.193Z,17.40
2019-03-30T16:26:50.613Z,17.30
2019-03-30T16:29:21.697Z,17.20
2019-03-30T16:31:51.750Z,17.10
2019-03-30T16:34:22.071Z,17.00
2019-03-30T16:36:52.156Z,16.80
2019-03-30T16:39:22.245Z,16.70
2019-03-30T16:41:52.338Z,16.60
2019-03-30T16:44:22.406Z,16.40
2019-03-30T16:46:52.495Z,16.30
2019-03-30T16:49:22.707Z,16.20
2019-03-30T16:51:52.782Z,16.20
2019-03-30T16:54:22.843Z,16.20
2019-03-30T16:56:52.935Z,16.20
2019-03-30T16:59:23.047Z,16.30
2019-03-30T17:01:53.143Z,16.30
2019-03-30T17:04:23.219Z,16.30
2019-03-30T17:06:53.396Z,16.30
2019-03-30T17:09:23.469Z,16.30
2019-03-30T17:11:53.531Z,16.20
2019-03-30T17:14:23.622Z,16.20
2019-03-30T17:16:54.158Z,16.20
2019-03-30T17:19:24.252Z,16.10
2019-03-30T17:21:54.333Z,16.10
2019-03-30T17:24:24.963Z,16.10
2019-03-30T17:26:55.546Z,16.00
2019-03-30T17:29:25.934Z,15.90
2019-03-30T17:31:56.112Z,15.80
2019-03-30T17:34:26.255Z,15.60
2019-03-30T17:36:56.798Z,15.50
2019-03-30T17:39:27.377Z,15.40
2019-03-30T17:41:57.452Z,15.30
2019-03-30T17:44:27.708Z,15.30
2019-03-30T17:46:57.810Z,15.40
2019-03-30T17:49:27.861Z,15.30
2019-03-30T17:51:57.951Z,15.20
2019-03-30T17:54:28.130Z,15.10
2019-03-30T17:56:58.631Z,14.80
2019-03-30T17:59:28.682Z,14.60
2019-03-30T18:01:59.066Z,14.40
2019-03-30T18:04:29.599Z,14.30
2019-03-30T18:06:59.692Z,14.10
2019-03-30T18:09:29.752Z,14.00
2019-03-30T18:11:59.839Z,13.90
2019-03-30T18:14:29.890Z,13.90
2019-03-30T18:16:59.973Z,13.80
2019-03-30T18:19:31.823Z,13.80
2019-03-30T18:22:02.023Z,13.80
2019-03-30T18:24:32.074Z,13.80
2019-03-30T18:27:02.131Z,13.70
2019-03-30T18:29:33.066Z,13.80
2019-03-30T18:32:03.132Z,13.70
2019-03-30T18:34:41.978Z,13.70
2019-03-30T18:37:13.952Z,13.60
2019-03-30T18:39:44.379Z,13.50
2019-03-30T18:42:14.473Z,13.50
2019-03-30T18:44:45.967Z,13.40
2019-03-30T18:47:16.037Z,13.40
2019-03-30T18:49:46.204Z,13.30
2019-03-30T18:52:16.692Z,13.30
2019-03-30T18:54:48.370Z,13.30
2019-03-30T18:57:18.430Z,13.30
2019-03-30T18:59:48.951Z,13.30
2019-03-30T19:02:19.316Z,13.20
2019-03-30T19:04:49.566Z,13.20
2019-03-30T19:07:19.653Z,13.20
2019-03-30T19:09:50.519Z,13.30
2019-03-30T19:12:20.994Z,13.20
2019-03-30T19:14:51.425Z,13.20
2019-03-30T19:17:21.510Z,13.20
2019-03-30T19:19:52.377Z,13.20
2019-03-30T19:22:22.568Z,13.20
2019-03-30T19:24:53.178Z,13.20
2019-03-30T19:27:23.429Z,13.20
2019-03-30T19:29:53.552Z,13.10
2019-03-30T19:32:23.815Z,13.10
2019-03-30T19:34:54.425Z,13.00
2019-03-30T19:37:25.101Z,13.00
2019-03-30T19:39:55.171Z,12.90
2019-03-30T19:42:25.528Z,12.90
2019-03-30T19:44:56.017Z,12.90
2019-03-30T19:47:26.242Z,12.90
2019-03-30T19:49:56.438Z,12.90
2019-03-30T19:52:39.165Z,12.90
2019-03-30T19:54:58.495Z,13.00
2019-03-30T19:57:29.091Z,12.90
2019-03-30T19:59:59.131Z,12.90
2019-03-30T20:02:29.547Z,12.90
2019-03-30T20:04:59.598Z,13.00
2019-03-30T20:07:29.891Z,13.00
2019-03-30T20:09:59.992Z,13.00
2019-03-30T20:12:30.190Z,13.00
2019-03-30T20:15:01.050Z,12.90
2019-03-30T20:17:32.035Z,12.90
2019-03-30T20:20:02.388Z,12.90
2019-03-30T20:22:33.070Z,12.90
2019-03-30T20:25:03.152Z,12.80
2019-03-30T20:27:33.770Z,12.60
2019-03-30T20:30:04.139Z,12.50
2019-03-30T20:32:34.319Z,12.40
2019-03-30T20:35:04.928Z,12.40
2019-03-30T20:37:35.755Z,12.20
2019-03-30T20:40:06.990Z,12.20
2019-03-30T20:42:37.502Z,12.10
2019-03-30T20:45:09.084Z,12.10
2019-03-30T20:47:39.435Z,12.00
2019-03-30T20:50:09.802Z,11.80
2019-03-30T20:52:40.026Z,11.70
2019-03-30T20:55:10.516Z,11.60
2019-03-30T20:57:41.067Z,11.50
2019-03-30T21:00:12.375Z,11.40
2019-03-30T21:02:42.688Z,11.20
2019-03-30T21:05:13.070Z,11.20
2019-03-30T21:07:43.135Z,11.00
2019-03-30T21:10:13.731Z,10.90
2019-03-30T21:12:44.306Z,10.80
2019-03-30T21:15:14.406Z,10.80
2019-03-30T21:17:44.464Z,10.70
2019-03-30T21:20:14.759Z,10.70
2019-03-30T21:22:45.172Z,10.60
2019-03-30T21:25:15.304Z,10.60
2019-03-30T21:27:45.375Z,10.60
2019-03-30T21:30:16.316Z,10.50
2019-03-30T21:32:46.416Z,10.40
2019-03-30T21:35:16.526Z,10.40
2019-03-30T21:37:47.205Z,10.30
2019-03-30T21:40:17.288Z,10.20
2019-03-30T21:42:47.415Z,10.10
2019-03-30T21:45:17.608Z,10.00
2019-03-30T21:47:48.047Z,9.90
2019-03-30T21:50:18.186Z,9.90
2019-03-30T21:52:48.359Z,9.80
2019-03-30T21:55:18.419Z,9.70
2019-03-30T21:57:48.566Z,9.60
2019-03-30T22:00:39.074Z,9.60
2019-03-30T22:03:10.389Z,9.50
2019-03-30T22:05:40.571Z,9.40
2019-03-30T22:08:10.750Z,9.40
2019-03-30T22:10:41.985Z,9.30
2019-03-30T22:13:12.087Z,9.30
2019-03-30T22:15:42.172Z,9.20
2019-03-30T22:18:12.718Z,9.20
2019-03-30T22:20:42.788Z,9.10
2019-03-30T22:23:13.343Z,9.10
2019-03-30T22:25:43.434Z,9.00
2019-03-30T22:28:14.330Z,8.90
2019-03-30T22:30:45.932Z,8.80
2019-03-30T22:33:16.002Z,8.70
2019-03-30T22:35:46.087Z,8.60
2019-03-30T22:38:16.187Z,8.50
2019-03-30T22:40:46.286Z,8.50
2019-03-30T22:43:16.406Z,8.40
2019-03-30T22:45:46.985Z,8.30
2019-03-30T22:48:17.526Z,8.20
2019-03-30T22:50:48.014Z,8.10
2019-03-30T22:53:18.126Z,8.10
2019-03-30T22:55:48.201Z,8.00
2019-03-30T22:58:18.270Z,8.00
2019-03-30T23:01:02.490Z,8.00
2019-03-30T23:03:32.974Z,8.00
2019-03-30T23:06:03.051Z,8.00
2019-03-30T23:08:33.138Z,8.00
2019-03-30T23:11:03.190Z,7.90
2019-03-30T23:13:33.269Z,7.90
2019-03-30T23:16:03.338Z,7.90
2019-03-30T23:18:33.418Z,7.90
2019-03-30T23:21:03.499Z,7.90
2019-03-30T23:23:33.900Z,7.90
2019-03-30T23:26:04.632Z,7.90
2019-03-30T23:28:34.703Z,7.90
2019-03-30T23:31:04.842Z,7.90
2019-03-30T23:33:34.912Z,7.90
2019-03-30T23:36:05.421Z,7.90
2019-03-30T23:38:35.478Z,7.80
2019-03-30T23:41:05.563Z,7.80
2019-03-30T23:43:35.620Z,7.80
2019-03-30T23:46:05.819Z,7.80
2019-03-30T23:48:35.883Z,7.80
2019-03-30T23:51:05.977Z,7.80
2019-03-30T23:53:36.122Z,7.80
2019-03-30T23:56:19.318Z,7.90
2019-03-30T23:58:49.390Z,8.10
